IE-0032 weather

Gowran Airstrip
Gowran, County Kilkenny, Ireland

Public forecast

Using degrees Celsius for public forecast. Weather courtesy of forecast.io.

Closest aviation weather report (METAR) to Gowran Airstrip

Report is more than 2 hours old.

Closest report is Waterford Airport, 27.4 nm (50.7 km) S. Retrieved 2020/07/08 20:30 UTC (5 hours ago):

EIWF 082030Z 26010G20KT 200V300 9999 BKN002 13/13 Q1010 R21/2/////

Closest aviation forecast (TAF) to Gowran Airstrip

Closest forecast is Dublin Airport, 55.9 nm (103.6 km) NNE. Retrieved 2020-07-09 00:11 UTC (2 hours ago):

TAF EIDW 082300Z 0900/0924 03008KT 9999 SCT003 BKN006 TEMPO 0900/0903 3000 -RADZ BKN003 PROB30 TEMPO 0900/0902 1400 BR BKN002 BECMG 0903/0905 SCT008 BKN015 PROB40 TEMPO 0906/0909 BKN008 BECMG 0910/0912 36008KT BECMG 0914/0916 06006KT BECMG 0917/0919 VRB03KT BECMG 0920/0922 32010KT